sensor_id;sensor_type;location;lat;lon;timestamp;P1;durP1;ratioP1;P2;durP2;ratioP2
41643;SDS011;44236;48.098;11.582;2023-01-05T00:01:31;3.95;;;1.38;;
41643;SDS011;44236;48.098;11.582;2023-01-05T00:03:57;3.08;;;1.38;;
41643;SDS011;44236;48.098;11.582;2023-01-05T00:06:23;3.45;;;1.27;;
41643;SDS011;44236;48.098;11.582;2023-01-05T00:08:49;3.55;;;0.95;;
41643;SDS011;44236;48.098;11.582;2023-01-05T00:11:16;1.83;;;0.88;;
41643;SDS011;44236;48.098;11.582;2023-01-05T00:14:01;5.75;;;1.10;;
41643;SDS011;44236;48.098;11.582;2023-01-05T00:16:47;1.92;;;0.90;;
41643;SDS011;44236;48.098;11.582;2023-01-05T00:19:31;3.72;;;1.23;;
41643;SDS011;44236;48.098;11.582;2023-01-05T00:24:54;3.00;;;1.00;;
41643;SDS011;44236;48.098;11.582;2023-01-05T00:27:24;1.60;;;0.90;;
41643;SDS011;44236;48.098;11.582;2023-01-05T00:29:50;4.03;;;1.00;;
41643;SDS011;44236;48.098;11.582;2023-01-05T00:32:16;2.83;;;0.80;;
41643;SDS011;44236;48.098;11.582;2023-01-05T00:34:41;3.70;;;1.20;;
41643;SDS011;44236;48.098;11.582;2023-01-05T00:37:07;2.35;;;0.82;;
41643;SDS011;44236;48.098;11.582;2023-01-05T00:39:32;3.17;;;1.20;;
41643;SDS011;44236;48.098;11.582;2023-01-05T00:41:58;1.83;;;0.80;;
41643;SDS011;44236;48.098;11.582;2023-01-05T00:44:24;1.45;;;0.93;;
41643;SDS011;44236;48.098;11.582;2023-01-05T00:46:49;2.22;;;0.88;;
41643;SDS011;44236;48.098;11.582;2023-01-05T00:49:15;4.82;;;1.70;;
41643;SDS011;44236;48.098;11.582;2023-01-05T00:51:40;1.92;;;0.80;;
41643;SDS011;44236;48.098;11.582;2023-01-05T00:54:06;1.13;;;0.70;;
41643;SDS011;44236;48.098;11.582;2023-01-05T00:56:32;2.13;;;0.90;;
41643;SDS011;44236;48.098;11.582;2023-01-05T00:58:57;1.23;;;0.80;;
41643;SDS011;44236;48.098;11.582;2023-01-05T01:01:23;1.70;;;0.90;;
41643;SDS011;44236;48.098;11.582;2023-01-05T01:03:49;1.88;;;1.10;;
41643;SDS011;44236;48.098;11.582;2023-01-05T01:06:15;2.05;;;0.90;;
41643;SDS011;44236;48.098;11.582;2023-01-05T01:08:41;1.55;;;0.75;;
41643;SDS011;44236;48.098;11.582;2023-01-05T01:11:07;1.40;;;0.65;;
41643;SDS011;44236;48.098;11.582;2023-01-05T01:13:33;2.78;;;0.88;;
41643;SDS011;44236;48.098;11.582;2023-01-05T01:16:10;2.33;;;0.80;;
41643;SDS011;44236;48.098;11.582;2023-01-05T01:18:38;1.73;;;0.68;;
41643;SDS011;44236;48.098;11.582;2023-01-05T01:21:04;2.58;;;0.90;;
41643;SDS011;44236;48.098;11.582;2023-01-05T01:23:30;2.33;;;0.85;;
41643;SDS011;44236;48.098;11.582;2023-01-05T01:25:58;2.45;;;0.77;;
41643;SDS011;44236;48.098;11.582;2023-01-05T01:28:33;2.08;;;0.95;;
41643;SDS011;44236;48.098;11.582;2023-01-05T01:31:00;1.42;;;0.80;;
41643;SDS011;44236;48.098;11.582;2023-01-05T01:33:26;3.55;;;0.70;;
41643;SDS011;44236;48.098;11.582;2023-01-05T01:35:52;5.50;;;0.90;;
41643;SDS011;44236;48.098;11.582;2023-01-05T01:38:17;1.75;;;0.88;;
41643;SDS011;44236;48.098;11.582;2023-01-05T01:40:44;2.08;;;0.75;;
41643;SDS011;44236;48.098;11.582;2023-01-05T01:43:12;3.53;;;0.90;;
41643;SDS011;44236;48.098;11.582;2023-01-05T01:45:56;2.22;;;0.88;;
41643;SDS011;44236;48.098;11.582;2023-01-05T01:48:21;1.73;;;0.80;;
41643;SDS011;44236;48.098;11.582;2023-01-05T01:50:51;4.10;;;0.90;;
41643;SDS011;44236;48.098;11.582;2023-01-05T01:55:52;2.88;;;0.95;;
41643;SDS011;44236;48.098;11.582;2023-01-05T01:58:20;2.28;;;0.98;;
41643;SDS011;44236;48.098;11.582;2023-01-05T02:00:49;2.25;;;0.70;;
41643;SDS011;44236;48.098;11.582;2023-01-05T02:03:15;4.05;;;0.98;;
41643;SDS011;44236;48.098;11.582;2023-01-05T02:05:41;1.55;;;0.77;;
41643;SDS011;44236;48.098;11.582;2023-01-05T02:08:11;2.53;;;0.88;;
41643;SDS011;44236;48.098;11.582;2023-01-05T02:16:17;3.13;;;0.77;;
41643;SDS011;44236;48.098;11.582;2023-01-05T02:21:24;2.28;;;0.82;;
41643;SDS011;44236;48.098;11.582;2023-01-05T02:32:34;3.38;;;1.08;;
41643;SDS011;44236;48.098;11.582;2023-01-05T02:35:19;1.23;;;0.70;;
41643;SDS011;44236;48.098;11.582;2023-01-05T02:38:05;1.60;;;0.68;;
41643;SDS011;44236;48.098;11.582;2023-01-05T02:40:44;1.85;;;0.63;;
41643;SDS011;44236;48.098;11.582;2023-01-05T02:43:14;1.77;;;0.80;;
41643;SDS011;44236;48.098;11.582;2023-01-05T02:45:44;1.65;;;0.82;;
41643;SDS011;44236;48.098;11.582;2023-01-05T02:48:10;1.45;;;0.60;;
41643;SDS011;44236;48.098;11.582;2023-01-05T02:53:06;1.33;;;0.70;;
41643;SDS011;44236;48.098;11.582;2023-01-05T02:55:45;1.35;;;0.63;;
41643;SDS011;44236;48.098;11.582;2023-01-05T02:58:16;3.30;;;0.90;;
41643;SDS011;44236;48.098;11.582;2023-01-05T03:00:49;1.10;;;0.50;;
41643;SDS011;44236;48.098;11.582;2023-01-05T03:05:58;0.82;;;0.52;;
41643;SDS011;44236;48.098;11.582;2023-01-05T03:08:32;3.70;;;1.17;;
41643;SDS011;44236;48.098;11.582;2023-01-05T03:11:02;2.17;;;0.82;;
41643;SDS011;44236;48.098;11.582;2023-01-05T03:13:52;2.38;;;0.80;;
41643;SDS011;44236;48.098;11.582;2023-01-05T03:16:41;2.85;;;1.00;;
41643;SDS011;44236;48.098;11.582;2023-01-05T03:19:11;1.80;;;0.75;;
41643;SDS011;44236;48.098;11.582;2023-01-05T03:21:58;0.80;;;0.50;;
41643;SDS011;44236;48.098;11.582;2023-01-05T03:25:01;1.33;;;0.80;;
41643;SDS011;44236;48.098;11.582;2023-01-05T03:27:46;1.80;;;0.75;;
41643;SDS011;44236;48.098;11.582;2023-01-05T03:30:38;1.10;;;0.80;;
41643;SDS011;44236;48.098;11.582;2023-01-05T03:33:35;1.25;;;0.75;;
41643;SDS011;44236;48.098;11.582;2023-01-05T03:36:29;2.95;;;0.77;;
41643;SDS011;44236;48.098;11.582;2023-01-05T03:39:03;1.58;;;0.70;;
41643;SDS011;44236;48.098;11.582;2023-01-05T03:41:30;2.45;;;0.68;;
41643;SDS011;44236;48.098;11.582;2023-01-05T03:43:57;0.70;;;0.40;;
41643;SDS011;44236;48.098;11.582;2023-01-05T03:46:23;1.85;;;0.80;;
41643;SDS011;44236;48.098;11.582;2023-01-05T03:48:48;1.00;;;0.68;;
41643;SDS011;44236;48.098;11.582;2023-01-05T03:51:14;1.02;;;0.50;;
41643;SDS011;44236;48.098;11.582;2023-01-05T03:53:41;2.17;;;0.70;;
41643;SDS011;44236;48.098;11.582;2023-01-05T03:56:07;1.02;;;0.52;;
41643;SDS011;44236;48.098;11.582;2023-01-05T03:58:32;1.55;;;0.57;;
41643;SDS011;44236;48.098;11.582;2023-01-05T04:00:58;2.03;;;0.68;;
41643;SDS011;44236;48.098;11.582;2023-01-05T04:03:23;1.80;;;0.65;;
41643;SDS011;44236;48.098;11.582;2023-01-05T04:05:49;1.48;;;0.50;;
41643;SDS011;44236;48.098;11.582;2023-01-05T04:08:15;4.03;;;0.90;;
41643;SDS011;44236;48.098;11.582;2023-01-05T04:10:40;1.38;;;0.52;;
41643;SDS011;44236;48.098;11.582;2023-01-05T04:13:06;1.00;;;0.50;;
41643;SDS011;44236;48.098;11.582;2023-01-05T04:15:32;1.88;;;0.60;;
41643;SDS011;44236;48.098;11.582;2023-01-05T04:17:57;2.20;;;0.55;;
41643;SDS011;44236;48.098;11.582;2023-01-05T04:20:23;0.85;;;0.68;;
41643;SDS011;44236;48.098;11.582;2023-01-05T04:22:49;1.23;;;0.60;;
41643;SDS011;44236;48.098;11.582;2023-01-05T04:25:17;0.50;;;0.50;;
41643;SDS011;44236;48.098;11.582;2023-01-05T04:27:43;0.75;;;0.52;;
41643;SDS011;44236;48.098;11.582;2023-01-05T04:30:09;2.30;;;0.80;;
41643;SDS011;44236;48.098;11.582;2023-01-05T04:32:35;0.68;;;0.47;;
41643;SDS011;44236;48.098;11.582;2023-01-05T04:35:00;1.45;;;0.65;;
41643;SDS011;44236;48.098;11.582;2023-01-05T04:37:26;1.52;;;0.73;;
41643;SDS011;44236;48.098;11.582;2023-01-05T04:39:51;0.77;;;0.50;;
41643;SDS011;44236;48.098;11.582;2023-01-05T04:42:17;1.15;;;0.60;;
41643;SDS011;44236;48.098;11.582;2023-01-05T04:44:43;1.40;;;0.70;;
41643;SDS011;44236;48.098;11.582;2023-01-05T04:47:08;1.10;;;0.60;;
41643;SDS011;44236;48.098;11.582;2023-01-05T04:49:34;0.90;;;0.50;;
41643;SDS011;44236;48.098;11.582;2023-01-05T04:52:00;1.58;;;0.57;;
41643;SDS011;44236;48.098;11.582;2023-01-05T04:54:26;0.75;;;0.50;;
41643;SDS011;44236;48.098;11.582;2023-01-05T04:56:51;0.77;;;0.40;;
41643;SDS011;44236;48.098;11.582;2023-01-05T04:59:17;1.27;;;0.60;;
41643;SDS011;44236;48.098;11.582;2023-01-05T05:01:42;2.40;;;0.68;;
41643;SDS011;44236;48.098;11.582;2023-01-05T05:04:08;1.60;;;0.50;;
41643;SDS011;44236;48.098;11.582;2023-01-05T05:06:34;1.50;;;0.60;;
41643;SDS011;44236;48.098;11.582;2023-01-05T05:09:00;1.65;;;0.70;;
41643;SDS011;44236;48.098;11.582;2023-01-05T05:11:25;1.23;;;0.80;;
41643;SDS011;44236;48.098;11.582;2023-01-05T05:13:51;2.47;;;0.50;;
41643;SDS011;44236;48.098;11.582;2023-01-05T05:16:16;1.50;;;0.50;;
41643;SDS011;44236;48.098;11.582;2023-01-05T05:18:42;1.33;;;0.60;;
41643;SDS011;44236;48.098;11.582;2023-01-05T05:21:08;0.85;;;0.52;;
41643;SDS011;44236;48.098;11.582;2023-01-05T05:23:33;1.55;;;0.57;;
41643;SDS011;44236;48.098;11.582;2023-01-05T05:25:59;0.70;;;0.52;;
41643;SDS011;44236;48.098;11.582;2023-01-05T05:28:24;1.20;;;0.60;;
41643;SDS011;44236;48.098;11.582;2023-01-05T05:30:52;0.60;;;0.38;;
41643;SDS011;44236;48.098;11.582;2023-01-05T05:33:20;0.70;;;0.50;;
41643;SDS011;44236;48.098;11.582;2023-01-05T05:35:46;1.08;;;0.52;;
41643;SDS011;44236;48.098;11.582;2023-01-05T05:38:11;0.90;;;0.60;;
41643;SDS011;44236;48.098;11.582;2023-01-05T05:40:37;2.65;;;1.00;;
41643;SDS011;44236;48.098;11.582;2023-01-05T05:43:02;1.42;;;0.50;;
41643;SDS011;44236;48.098;11.582;2023-01-05T05:45:28;1.67;;;0.60;;
41643;SDS011;44236;48.098;11.582;2023-01-05T05:47:53;0.43;;;0.40;;
41643;SDS011;44236;48.098;11.582;2023-01-05T05:50:19;0.50;;;0.40;;
41643;SDS011;44236;48.098;11.582;2023-01-05T05:52:45;1.00;;;0.60;;
41643;SDS011;44236;48.098;11.582;2023-01-05T05:55:10;0.88;;;0.55;;
41643;SDS011;44236;48.098;11.582;2023-01-05T05:57:36;1.40;;;1.17;;
41643;SDS011;44236;48.098;11.582;2023-01-05T06:00:03;0.93;;;0.43;;
41643;SDS011;44236;48.098;11.582;2023-01-05T06:02:29;1.60;;;0.50;;
41643;SDS011;44236;48.098;11.582;2023-01-05T06:04:55;1.13;;;0.68;;
41643;SDS011;44236;48.098;11.582;2023-01-05T06:07:20;0.68;;;0.50;;
41643;SDS011;44236;48.098;11.582;2023-01-05T06:09:46;3.35;;;1.08;;
41643;SDS011;44236;48.098;11.582;2023-01-05T06:12:11;1.23;;;0.60;;
41643;SDS011;44236;48.098;11.582;2023-01-05T06:14:37;1.45;;;0.50;;
41643;SDS011;44236;48.098;11.582;2023-01-05T06:17:02;2.03;;;0.50;;
41643;SDS011;44236;48.098;11.582;2023-01-05T06:19:28;0.90;;;0.55;;
41643;SDS011;44236;48.098;11.582;2023-01-05T06:21:56;0.95;;;0.40;;
41643;SDS011;44236;48.098;11.582;2023-01-05T06:24:22;0.98;;;0.60;;
41643;SDS011;44236;48.098;11.582;2023-01-05T06:26:47;1.35;;;0.60;;
41643;SDS011;44236;48.098;11.582;2023-01-05T06:29:13;0.95;;;0.50;;
41643;SDS011;44236;48.098;11.582;2023-01-05T06:31:38;1.05;;;0.40;;
41643;SDS011;44236;48.098;11.582;2023-01-05T06:34:04;1.13;;;0.50;;
41643;SDS011;44236;48.098;11.582;2023-01-05T06:36:30;1.20;;;0.43;;
41643;SDS011;44236;48.098;11.582;2023-01-05T06:38:55;2.72;;;0.60;;
41643;SDS011;44236;48.098;11.582;2023-01-05T06:41:21;4.97;;;0.50;;
41643;SDS011;44236;48.098;11.582;2023-01-05T06:43:46;1.27;;;0.70;;
41643;SDS011;44236;48.098;11.582;2023-01-05T06:46:12;1.35;;;0.50;;
41643;SDS011;44236;48.098;11.582;2023-01-05T06:48:37;1.05;;;0.50;;
41643;SDS011;44236;48.098;11.582;2023-01-05T06:51:03;1.45;;;0.50;;
41643;SDS011;44236;48.098;11.582;2023-01-05T06:53:29;0.80;;;0.40;;
41643;SDS011;44236;48.098;11.582;2023-01-05T06:55:54;4.53;;;0.52;;
41643;SDS011;44236;48.098;11.582;2023-01-05T06:58:20;9.55;;;1.25;;
41643;SDS011;44236;48.098;11.582;2023-01-05T07:00:46;0.55;;;0.40;;
41643;SDS011;44236;48.098;11.582;2023-01-05T07:03:12;3.42;;;0.47;;
41643;SDS011;44236;48.098;11.582;2023-01-05T07:05:38;3.08;;;1.23;;
41643;SDS011;44236;48.098;11.582;2023-01-05T07:08:04;3.85;;;0.60;;
41643;SDS011;44236;48.098;11.582;2023-01-05T07:10:30;1.67;;;0.68;;
41643;SDS011;44236;48.098;11.582;2023-01-05T07:12:56;4.13;;;0.60;;
41643;SDS011;44236;48.098;11.582;2023-01-05T07:15:22;0.47;;;0.32;;
41643;SDS011;44236;48.098;11.582;2023-01-05T07:17:47;0.82;;;0.50;;
41643;SDS011;44236;48.098;11.582;2023-01-05T07:20:13;5.50;;;0.40;;
41643;SDS011;44236;48.098;11.582;2023-01-05T07:22:38;0.25;;;0.25;;
41643;SDS011;44236;48.098;11.582;2023-01-05T07:25:04;0.43;;;0.30;;
41643;SDS011;44236;48.098;11.582;2023-01-05T07:27:30;0.32;;;0.30;;
41643;SDS011;44236;48.098;11.582;2023-01-05T07:29:56;1.25;;;0.50;;
41643;SDS011;44236;48.098;11.582;2023-01-05T07:32:21;0.80;;;0.40;;
41643;SDS011;44236;48.098;11.582;2023-01-05T07:34:47;4.38;;;0.40;;
41643;SDS011;44236;48.098;11.582;2023-01-05T07:37:13;0.82;;;0.45;;
41643;SDS011;44236;48.098;11.582;2023-01-05T07:39:39;0.40;;;0.40;;
41643;SDS011;44236;48.098;11.582;2023-01-05T07:42:04;0.63;;;0.40;;
41643;SDS011;44236;48.098;11.582;2023-01-05T07:44:30;0.40;;;0.30;;
41643;SDS011;44236;48.098;11.582;2023-01-05T07:46:55;1.25;;;0.63;;
41643;SDS011;44236;48.098;11.582;2023-01-05T07:49:22;4.32;;;0.40;;
41643;SDS011;44236;48.098;11.582;2023-01-05T07:51:48;0.38;;;0.30;;
41643;SDS011;44236;48.098;11.582;2023-01-05T07:54:13;0.57;;;0.35;;
41643;SDS011;44236;48.098;11.582;2023-01-05T07:56:39;1.13;;;0.40;;
41643;SDS011;44236;48.098;11.582;2023-01-05T07:59:05;0.50;;;0.40;;
41643;SDS011;44236;48.098;11.582;2023-01-05T08:01:30;32.90;;;1.30;;
41643;SDS011;44236;48.098;11.582;2023-01-05T08:03:56;3.05;;;0.63;;
41643;SDS011;44236;48.098;11.582;2023-01-05T08:06:22;1.00;;;0.40;;
41643;SDS011;44236;48.098;11.582;2023-01-05T08:08:47;0.43;;;0.30;;
41643;SDS011;44236;48.098;11.582;2023-01-05T08:11:14;2.47;;;0.63;;
41643;SDS011;44236;48.098;11.582;2023-01-05T08:13:41;2.08;;;0.38;;
41643;SDS011;44236;48.098;11.582;2023-01-05T08:16:30;0.75;;;0.60;;
41643;SDS011;44236;48.098;11.582;2023-01-05T08:18:57;2.75;;;0.40;;
41643;SDS011;44236;48.098;11.582;2023-01-05T08:21:23;0.47;;;0.20;;
41643;SDS011;44236;48.098;11.582;2023-01-05T08:23:49;0.30;;;0.30;;
41643;SDS011;44236;48.098;11.582;2023-01-05T08:26:17;2.92;;;0.63;;
41643;SDS011;44236;48.098;11.582;2023-01-05T08:28:45;2.40;;;0.52;;
41643;SDS011;44236;48.098;11.582;2023-01-05T08:31:21;0.40;;;0.30;;
41643;SDS011;44236;48.098;11.582;2023-01-05T08:33:55;0.75;;;0.30;;
41643;SDS011;44236;48.098;11.582;2023-01-05T08:36:26;1.40;;;0.47;;
41643;SDS011;44236;48.098;11.582;2023-01-05T08:38:52;5.72;;;0.40;;
41643;SDS011;44236;48.098;11.582;2023-01-05T08:43:52;0.52;;;0.35;;
41643;SDS011;44236;48.098;11.582;2023-01-05T08:46:20;0.30;;;0.30;;
41643;SDS011;44236;48.098;11.582;2023-01-05T08:48:48;0.47;;;0.30;;
41643;SDS011;44236;48.098;11.582;2023-01-05T08:51:15;0.20;;;0.20;;
41643;SDS011;44236;48.098;11.582;2023-01-05T08:53:41;0.30;;;0.30;;
41643;SDS011;44236;48.098;11.582;2023-01-05T08:56:06;0.38;;;0.20;;
41643;SDS011;44236;48.098;11.582;2023-01-05T08:58:34;0.57;;;0.40;;
41643;SDS011;44236;48.098;11.582;2023-01-05T09:01:08;0.73;;;0.30;;
41643;SDS011;44236;48.098;11.582;2023-01-05T09:03:38;0.30;;;0.30;;
41643;SDS011;44236;48.098;11.582;2023-01-05T09:06:04;0.73;;;0.73;;
41643;SDS011;44236;48.098;11.582;2023-01-05T09:08:33;3.20;;;0.40;;
41643;SDS011;44236;48.098;11.582;2023-01-05T09:11:13;6.78;;;1.52;;
41643;SDS011;44236;48.098;11.582;2023-01-05T09:13:44;0.43;;;0.30;;
41643;SDS011;44236;48.098;11.582;2023-01-05T09:16:12;0.65;;;0.40;;
41643;SDS011;44236;48.098;11.582;2023-01-05T09:18:39;3.67;;;0.60;;
41643;SDS011;44236;48.098;11.582;2023-01-05T09:21:06;1.30;;;0.40;;
41643;SDS011;44236;48.098;11.582;2023-01-05T09:23:33;2.70;;;0.50;;
41643;SDS011;44236;48.098;11.582;2023-01-05T09:26:01;0.98;;;0.40;;
41643;SDS011;44236;48.098;11.582;2023-01-05T09:28:28;3.05;;;0.40;;
41643;SDS011;44236;48.098;11.582;2023-01-05T09:30:54;1.52;;;0.45;;
41643;SDS011;44236;48.098;11.582;2023-01-05T09:33:19;2.40;;;0.43;;
41643;SDS011;44236;48.098;11.582;2023-01-05T09:35:51;0.55;;;0.35;;
41643;SDS011;44236;48.098;11.582;2023-01-05T09:38:20;1.50;;;0.47;;
41643;SDS011;44236;48.098;11.582;2023-01-05T09:40:47;0.73;;;0.52;;
41643;SDS011;44236;48.098;11.582;2023-01-05T09:43:20;2.40;;;0.40;;
41643;SDS011;44236;48.098;11.582;2023-01-05T09:45:49;2.58;;;0.40;;
41643;SDS011;44236;48.098;11.582;2023-01-05T09:48:15;10.65;;;1.63;;
41643;SDS011;44236;48.098;11.582;2023-01-05T09:50:43;4.45;;;0.60;;
41643;SDS011;44236;48.098;11.582;2023-01-05T09:53:13;3.45;;;0.50;;
41643;SDS011;44236;48.098;11.582;2023-01-05T09:55:43;1.70;;;0.52;;
41643;SDS011;44236;48.098;11.582;2023-01-05T09:58:15;7.72;;;1.00;;
41643;SDS011;44236;48.098;11.582;2023-01-05T10:00:45;5.18;;;0.70;;
41643;SDS011;44236;48.098;11.582;2023-01-05T10:03:24;22.27;;;1.33;;
41643;SDS011;44236;48.098;11.582;2023-01-05T10:05:50;4.43;;;0.77;;
41643;SDS011;44236;48.098;11.582;2023-01-05T10:08:18;7.88;;;1.60;;
41643;SDS011;44236;48.098;11.582;2023-01-05T10:11:03;4.07;;;0.50;;
41643;SDS011;44236;48.098;11.582;2023-01-05T10:14:04;4.22;;;0.50;;
41643;SDS011;44236;48.098;11.582;2023-01-05T10:16:36;4.72;;;0.70;;
41643;SDS011;44236;48.098;11.582;2023-01-05T10:19:05;7.38;;;0.90;;
41643;SDS011;44236;48.098;11.582;2023-01-05T10:24:21;17.13;;;0.90;;
41643;SDS011;44236;48.098;11.582;2023-01-05T10:26:57;1.70;;;0.50;;
41643;SDS011;44236;48.098;11.582;2023-01-05T10:35:06;3.60;;;0.77;;
41643;SDS011;44236;48.098;11.582;2023-01-05T10:37:36;13.65;;;0.98;;
41643;SDS011;44236;48.098;11.582;2023-01-05T10:40:20;3.22;;;0.50;;
41643;SDS011;44236;48.098;11.582;2023-01-05T10:45:46;9.75;;;0.82;;
41643;SDS011;44236;48.098;11.582;2023-01-05T10:48:13;6.90;;;0.90;;
41643;SDS011;44236;48.098;11.582;2023-01-05T10:50:43;1.83;;;0.50;;
41643;SDS011;44236;48.098;11.582;2023-01-05T10:55:40;6.15;;;0.95;;
41643;SDS011;44236;48.098;11.582;2023-01-05T10:58:20;0.50;;;0.45;;
41643;SDS011;44236;48.098;11.582;2023-01-05T11:00:58;2.53;;;0.60;;
41643;SDS011;44236;48.098;11.582;2023-01-05T11:03:38;2.22;;;1.05;;
41643;SDS011;44236;48.098;11.582;2023-01-05T11:06:05;3.53;;;1.15;;
41643;SDS011;44236;48.098;11.582;2023-01-05T11:08:33;16.40;;;1.67;;
41643;SDS011;44236;48.098;11.582;2023-01-05T11:11:06;4.00;;;0.95;;
41643;SDS011;44236;48.098;11.582;2023-01-05T11:13:33;4.03;;;0.60;;
41643;SDS011;44236;48.098;11.582;2023-01-05T11:21:41;6.80;;;0.60;;
41643;SDS011;44236;48.098;11.582;2023-01-05T11:26:58;6.45;;;1.08;;
41643;SDS011;44236;48.098;11.582;2023-01-05T11:29:27;5.88;;;0.77;;
41643;SDS011;44236;48.098;11.582;2023-01-05T11:32:02;6.07;;;0.88;;
41643;SDS011;44236;48.098;11.582;2023-01-05T11:37:25;1.65;;;0.52;;
41643;SDS011;44236;48.098;11.582;2023-01-05T11:39:59;3.80;;;0.73;;
41643;SDS011;44236;48.098;11.582;2023-01-05T11:42:28;4.55;;;0.73;;
41643;SDS011;44236;48.098;11.582;2023-01-05T11:44:57;0.77;;;0.32;;
41643;SDS011;44236;48.098;11.582;2023-01-05T11:50:52;1.20;;;0.50;;
41643;SDS011;44236;48.098;11.582;2023-01-05T11:58:25;3.55;;;0.65;;
41643;SDS011;44236;48.098;11.582;2023-01-05T12:09:37;6.22;;;0.90;;
41643;SDS011;44236;48.098;11.582;2023-01-05T12:20:56;9.68;;;1.83;;
41643;SDS011;44236;48.098;11.582;2023-01-05T12:29:16;19.10;;;1.80;;
41643;SDS011;44236;48.098;11.582;2023-01-05T12:48:59;11.45;;;2.47;;
41643;SDS011;44236;48.098;11.582;2023-01-05T12:51:30;17.38;;;2.15;;
41643;SDS011;44236;48.098;11.582;2023-01-05T12:56:35;8.55;;;1.65;;
41643;SDS011;44236;48.098;11.582;2023-01-05T12:59:16;9.02;;;1.83;;
41643;SDS011;44236;48.098;11.582;2023-01-05T13:07:16;3.90;;;0.95;;
41643;SDS011;44236;48.098;11.582;2023-01-05T13:09:59;6.47;;;1.02;;
41643;SDS011;44236;48.098;11.582;2023-01-05T13:12:29;5.93;;;1.10;;
41643;SDS011;44236;48.098;11.582;2023-01-05T13:15:12;6.90;;;1.45;;
41643;SDS011;44236;48.098;11.582;2023-01-05T13:17:46;6.72;;;1.10;;
41643;SDS011;44236;48.098;11.582;2023-01-05T13:22:49;4.43;;;1.15;;
41643;SDS011;44236;48.098;11.582;2023-01-05T13:25:20;12.00;;;2.10;;
41643;SDS011;44236;48.098;11.582;2023-01-05T13:27:48;6.03;;;1.00;;
41643;SDS011;44236;48.098;11.582;2023-01-05T13:30:32;3.95;;;0.85;;
41643;SDS011;44236;48.098;11.582;2023-01-05T13:41:18;3.13;;;1.05;;
41643;SDS011;44236;48.098;11.582;2023-01-05T13:47:04;7.43;;;1.27;;
41643;SDS011;44236;48.098;11.582;2023-01-05T13:52:58;3.03;;;0.80;;
41643;SDS011;44236;48.098;11.582;2023-01-05T13:55:50;12.13;;;1.23;;
41643;SDS011;44236;48.098;11.582;2023-01-05T14:00:55;10.43;;;1.13;;
41643;SDS011;44236;48.098;11.582;2023-01-05T14:03:22;7.80;;;0.98;;
41643;SDS011;44236;48.098;11.582;2023-01-05T14:05:53;10.05;;;2.65;;
41643;SDS011;44236;48.098;11.582;2023-01-05T14:08:31;8.32;;;0.70;;
41643;SDS011;44236;48.098;11.582;2023-01-05T14:11:08;7.13;;;0.80;;
41643;SDS011;44236;48.098;11.582;2023-01-05T14:32:11;1.95;;;0.80;;
41643;SDS011;44236;48.098;11.582;2023-01-05T14:34:55;1.95;;;0.50;;
41643;SDS011;44236;48.098;11.582;2023-01-05T14:37:55;1.85;;;0.73;;
41643;SDS011;44236;48.098;11.582;2023-01-05T14:42:58;3.03;;;0.47;;
41643;SDS011;44236;48.098;11.582;2023-01-05T14:45:32;5.03;;;0.82;;
41643;SDS011;44236;48.098;11.582;2023-01-05T14:48:02;5.97;;;0.98;;
41643;SDS011;44236;48.098;11.582;2023-01-05T14:50:40;3.13;;;0.93;;
41643;SDS011;44236;48.098;11.582;2023-01-05T15:03:45;1.77;;;0.75;;
41643;SDS011;44236;48.098;11.582;2023-01-05T15:06:18;2.13;;;0.80;;
41643;SDS011;44236;48.098;11.582;2023-01-05T15:23:02;3.65;;;0.75;;
41643;SDS011;44236;48.098;11.582;2023-01-05T15:28:04;1.33;;;0.60;;
41643;SDS011;44236;48.098;11.582;2023-01-05T15:34:00;1.83;;;0.70;;
41643;SDS011;44236;48.098;11.582;2023-01-05T15:36:37;3.13;;;0.80;;
41643;SDS011;44236;48.098;11.582;2023-01-05T15:39:27;1.77;;;0.60;;
41643;SDS011;44236;48.098;11.582;2023-01-05T15:42:06;1.55;;;0.88;;
41643;SDS011;44236;48.098;11.582;2023-01-05T15:44:35;0.80;;;0.32;;
41643;SDS011;44236;48.098;11.582;2023-01-05T15:47:03;1.67;;;0.60;;
41643;SDS011;44236;48.098;11.582;2023-01-05T15:49:32;1.80;;;0.68;;
41643;SDS011;44236;48.098;11.582;2023-01-05T15:51:58;2.58;;;0.52;;
41643;SDS011;44236;48.098;11.582;2023-01-05T15:54:28;2.13;;;0.55;;
41643;SDS011;44236;48.098;11.582;2023-01-05T15:56:56;1.50;;;0.50;;
41643;SDS011;44236;48.098;11.582;2023-01-05T15:59:31;3.05;;;0.70;;
41643;SDS011;44236;48.098;11.582;2023-01-05T16:05:13;2.55;;;0.63;;
41643;SDS011;44236;48.098;11.582;2023-01-05T16:07:55;1.83;;;0.50;;
41643;SDS011;44236;48.098;11.582;2023-01-05T16:13:06;0.85;;;0.50;;
41643;SDS011;44236;48.098;11.582;2023-01-05T16:15:34;0.73;;;0.50;;
41643;SDS011;44236;48.098;11.582;2023-01-05T16:18:02;3.88;;;0.70;;
41643;SDS011;44236;48.098;11.582;2023-01-05T16:20:30;1.40;;;0.57;;
41643;SDS011;44236;48.098;11.582;2023-01-05T16:25:38;1.63;;;0.60;;
41643;SDS011;44236;48.098;11.582;2023-01-05T16:28:10;2.60;;;0.50;;
41643;SDS011;44236;48.098;11.582;2023-01-05T16:30:41;2.58;;;0.70;;
41643;SDS011;44236;48.098;11.582;2023-01-05T16:35:40;0.52;;;0.43;;
41643;SDS011;44236;48.098;11.582;2023-01-05T16:41:20;1.02;;;0.55;;
41643;SDS011;44236;48.098;11.582;2023-01-05T16:43:32;0.88;;;0.50;;
41643;SDS011;44236;48.098;11.582;2023-01-05T16:51:11;4.18;;;0.50;;
41643;SDS011;44236;48.098;11.582;2023-01-05T16:53:42;2.83;;;0.50;;
41643;SDS011;44236;48.098;11.582;2023-01-05T16:56:40;3.95;;;0.60;;
41643;SDS011;44236;48.098;11.582;2023-01-05T16:59:30;2.58;;;0.90;;
41643;SDS011;44236;48.098;11.582;2023-01-05T17:02:30;3.95;;;0.63;;
41643;SDS011;44236;48.098;11.582;2023-01-05T17:05:06;5.40;;;0.88;;
41643;SDS011;44236;48.098;11.582;2023-01-05T17:07:32;2.80;;;0.60;;
41643;SDS011;44236;48.098;11.582;2023-01-05T17:10:00;4.80;;;0.85;;
41643;SDS011;44236;48.098;11.582;2023-01-05T17:12:26;2.05;;;0.60;;
41643;SDS011;44236;48.098;11.582;2023-01-05T17:14:52;4.80;;;1.02;;
41643;SDS011;44236;48.098;11.582;2023-01-05T17:17:21;3.53;;;0.80;;
41643;SDS011;44236;48.098;11.582;2023-01-05T17:19:48;1.65;;;0.57;;
41643;SDS011;44236;48.098;11.582;2023-01-05T17:22:17;2.33;;;0.75;;
41643;SDS011;44236;48.098;11.582;2023-01-05T17:24:43;2.75;;;0.70;;
41643;SDS011;44236;48.098;11.582;2023-01-05T17:27:09;3.42;;;1.23;;
41643;SDS011;44236;48.098;11.582;2023-01-05T17:29:35;1.98;;;0.80;;
41643;SDS011;44236;48.098;11.582;2023-01-05T17:32:01;4.30;;;0.77;;
41643;SDS011;44236;48.098;11.582;2023-01-05T17:34:27;1.75;;;0.80;;
41643;SDS011;44236;48.098;11.582;2023-01-05T17:36:54;3.45;;;1.17;;
41643;SDS011;44236;48.098;11.582;2023-01-05T17:39:22;9.20;;;1.63;;
41643;SDS011;44236;48.098;11.582;2023-01-05T17:41:47;10.68;;;2.13;;
41643;SDS011;44236;48.098;11.582;2023-01-05T17:44:13;13.68;;;2.70;;
41643;SDS011;44236;48.098;11.582;2023-01-05T17:46:39;11.90;;;3.35;;
41643;SDS011;44236;48.098;11.582;2023-01-05T17:49:17;10.88;;;3.10;;
41643;SDS011;44236;48.098;11.582;2023-01-05T17:51:44;10.65;;;3.47;;
41643;SDS011;44236;48.098;11.582;2023-01-05T17:54:11;12.88;;;3.35;;
41643;SDS011;44236;48.098;11.582;2023-01-05T17:56:37;11.13;;;3.28;;
41643;SDS011;44236;48.098;11.582;2023-01-05T17:59:03;10.90;;;3.63;;
41643;SDS011;44236;48.098;11.582;2023-01-05T18:01:29;11.00;;;3.35;;
41643;SDS011;44236;48.098;11.582;2023-01-05T18:03:57;12.77;;;3.60;;
41643;SDS011;44236;48.098;11.582;2023-01-05T18:06:23;12.02;;;3.30;;
41643;SDS011;44236;48.098;11.582;2023-01-05T18:08:48;14.60;;;3.55;;
41643;SDS011;44236;48.098;11.582;2023-01-05T18:11:14;9.93;;;3.42;;